Alexandria, New York
Current Conditions -  °F | °C
As of 1:58 PM on Saturday 25 Oct 2014 (Local Time) from KGTB Reporting Station
Overcast Overcast  
Wind Chill: 15°   Ceiling: 3400
Heat Index: 15°   Visibility: 10mi
Dew Point:   Wind: 15mph
Humidity: 63%   Direction: 240°WSW
Pressure: 29.6"   Gusts: 22mph
Location:  44.3057°N, 75.9374°W
Report Text: KGTB 251758Z AUTO 24013G19KT 10SM OVC034 15/08 A2960 RMK AO2 SLP025 T01470078 10150 20084 57038
Loading
Personal Weather Stations






























Interactive Weather Map
Tropical Storm Tracking
New forecast layout! Learn more

10-Day Weather Forecast

Advertisements
Track Severe Weather on mobile